createdAt,value
2022-09-02T00:00:44.974Z,47.00
2022-09-02T00:03:12.613Z,46.89
2022-09-02T00:05:39.550Z,46.88
2022-09-02T00:08:06.633Z,46.96
2022-09-02T00:10:35.114Z,47.19
2022-09-02T00:13:02.054Z,47.02
2022-09-02T00:15:28.927Z,47.02
2022-09-02T00:17:56.436Z,47.01
2022-09-02T00:20:26.146Z,46.92
2022-09-02T00:22:53.009Z,47.10
2022-09-02T00:25:20.114Z,47.29
2022-09-02T00:27:47.142Z,47.15
2022-09-02T00:30:14.728Z,47.41
2022-09-02T00:32:41.720Z,47.34
2022-09-02T00:35:09.143Z,47.19
2022-09-02T00:37:36.662Z,47.41
2022-09-02T00:40:04.285Z,47.28
2022-09-02T00:42:31.255Z,47.12
2022-09-02T00:44:58.124Z,47.44
2022-09-02T00:47:26.094Z,47.27
2022-09-02T00:49:54.846Z,47.50
2022-09-02T00:52:26.478Z,47.35
2022-09-02T00:54:58.417Z,47.43
2022-09-02T00:57:53.151Z,47.34
2022-09-02T01:00:22.170Z,47.14
2022-09-02T01:02:52.293Z,47.45
2022-09-02T01:05:20.753Z,47.46
2022-09-02T01:08:20.725Z,47.35
2022-09-02T01:11:08.226Z,47.65
2022-09-02T01:13:58.886Z,47.54
2022-09-02T01:17:04.274Z,47.50
2022-09-02T01:20:05.562Z,47.45
2022-09-02T01:22:56.600Z,47.59
2022-09-02T01:25:25.480Z,47.63
2022-09-02T01:27:52.358Z,47.51
2022-09-02T01:30:24.182Z,47.71
2022-09-02T01:32:51.318Z,47.75
2022-09-02T01:35:18.465Z,47.60
2022-09-02T01:37:55.796Z,47.61
2022-09-02T01:40:23.215Z,47.85
2022-09-02T01:42:50.089Z,47.69
2022-09-02T01:45:17.241Z,47.66
2022-09-02T01:47:44.105Z,47.53
2022-09-02T01:50:11.508Z,47.58
2022-09-02T01:52:38.460Z,47.51
2022-09-02T01:55:05.783Z,47.66
2022-09-02T01:57:32.849Z,47.88
2022-09-02T02:00:01.563Z,47.89
2022-09-02T02:02:29.479Z,47.80
2022-09-02T02:04:56.389Z,47.90
2022-09-02T02:07:23.973Z,47.93
2022-09-02T02:09:51.123Z,47.90
2022-09-02T02:12:18.763Z,47.79
2022-09-02T02:14:45.682Z,47.82
2022-09-02T02:17:12.673Z,47.80
2022-09-02T02:19:39.623Z,48.06
2022-09-02T02:22:06.478Z,47.88
2022-09-02T02:24:33.402Z,48.10
2022-09-02T02:27:00.309Z,47.80
2022-09-02T02:29:27.190Z,47.91
2022-09-02T02:31:54.141Z,47.94
2022-09-02T02:34:21.250Z,47.91
2022-09-02T02:36:48.234Z,48.07
2022-09-02T02:39:15.124Z,47.80
2022-09-02T02:41:44.606Z,47.99
2022-09-02T02:44:11.875Z,48.08
2022-09-02T02:46:38.754Z,47.92
2022-09-02T02:49:06.250Z,47.90
2022-09-02T02:51:34.043Z,47.90
2022-09-02T02:54:01.679Z,48.00
2022-09-02T02:56:29.919Z,48.05
2022-09-02T02:58:57.419Z,48.17
2022-09-02T03:01:24.333Z,48.02
2022-09-02T03:03:52.451Z,48.40
2022-09-02T03:06:19.498Z,48.14
2022-09-02T03:08:51.109Z,48.18
2022-09-02T03:11:18.442Z,48.08
2022-09-02T03:13:45.315Z,48.23
2022-09-02T03:16:12.367Z,48.45
2022-09-02T03:18:39.210Z,48.24
2022-09-02T03:21:09.388Z,48.13
2022-09-02T03:23:36.240Z,48.12
2022-09-02T03:26:04.541Z,48.13
2022-09-02T03:28:33.343Z,48.18
2022-09-02T03:31:00.281Z,48.42
2022-09-02T03:33:27.193Z,48.27
2022-09-02T03:35:54.099Z,48.51
2022-09-02T03:38:21.372Z,48.38
2022-09-02T03:40:48.282Z,48.48
2022-09-02T03:43:15.879Z,48.34
2022-09-02T03:45:42.814Z,48.45
2022-09-02T03:48:11.259Z,48.48
2022-09-02T03:50:41.130Z,48.54
2022-09-02T03:53:08.425Z,48.48
2022-09-02T03:55:36.941Z,48.59
2022-09-02T03:58:08.425Z,48.35
2022-09-02T04:00:35.842Z,48.55
2022-09-02T04:03:03.904Z,48.30
2022-09-02T04:05:31.085Z,48.49
2022-09-02T04:07:58.021Z,48.64
2022-09-02T04:10:24.925Z,48.33
2022-09-02T04:12:51.996Z,48.41
2022-09-02T04:15:19.593Z,48.03
2022-09-02T04:17:46.719Z,48.54
2022-09-02T04:20:14.070Z,48.68
2022-09-02T04:22:41.362Z,48.59
2022-09-02T04:25:08.922Z,48.04
2022-09-02T04:27:35.854Z,48.54
2022-09-02T04:30:02.855Z,48.28
2022-09-02T04:32:29.725Z,48.46
2022-09-02T04:34:57.219Z,48.23
2022-09-02T04:37:24.092Z,48.46
2022-09-02T04:39:51.076Z,48.16
2022-09-02T04:42:17.964Z,48.56
2022-09-02T04:44:46.712Z,48.34
2022-09-02T04:47:13.557Z,48.62
2022-09-02T04:49:42.262Z,48.27
2022-09-02T04:52:10.721Z,48.21
2022-09-02T04:54:37.794Z,48.18
2022-09-02T04:57:04.882Z,48.19
2022-09-02T04:59:36.583Z,48.33
2022-09-02T05:02:04.658Z,48.27
2022-09-02T05:04:32.200Z,48.47
2022-09-02T05:07:01.695Z,48.26
2022-09-02T05:09:31.582Z,48.07
2022-09-02T05:11:58.540Z,48.19
2022-09-02T05:14:25.644Z,48.24
2022-09-02T05:16:55.508Z,48.23
2022-09-02T05:19:23.582Z,48.31
2022-09-02T05:21:51.466Z,47.91
2022-09-02T05:24:19.124Z,48.11
2022-09-02T05:26:48.032Z,47.79
2022-09-02T05:29:14.986Z,47.94
2022-09-02T05:31:42.216Z,48.09
2022-09-02T05:34:09.275Z,48.19
2022-09-02T05:36:36.181Z,47.91
2022-09-02T05:39:03.823Z,47.73
2022-09-02T05:41:30.956Z,47.95
2022-09-02T05:44:01.320Z,47.75
2022-09-02T05:46:28.911Z,48.17
2022-09-02T05:49:09.146Z,48.02
2022-09-02T05:51:40.316Z,48.31
2022-09-02T05:54:07.240Z,48.03
2022-09-02T05:56:34.137Z,47.92
2022-09-02T05:59:01.808Z,48.29
2022-09-02T06:01:29.728Z,48.09
2022-09-02T06:03:57.698Z,48.08
2022-09-02T06:06:24.643Z,47.88
2022-09-02T06:08:51.605Z,47.69
2022-09-02T06:11:18.538Z,47.71
2022-09-02T06:13:45.507Z,48.18
2022-09-02T06:16:20.068Z,47.87
2022-09-02T06:18:47.585Z,47.86
2022-09-02T06:21:14.778Z,48.13
2022-09-02T06:23:41.908Z,48.05
2022-09-02T06:26:09.649Z,48.23
2022-09-02T06:28:36.552Z,47.94
2022-09-02T06:31:15.270Z,47.95
2022-09-02T06:33:43.425Z,47.95
2022-09-02T06:36:12.405Z,48.32
2022-09-02T06:38:45.209Z,48.29
2022-09-02T06:41:13.927Z,48.16
2022-09-02T06:43:42.984Z,47.70
2022-09-02T06:46:18.318Z,48.07
2022-09-02T06:48:45.309Z,48.01
2022-09-02T06:51:32.815Z,48.30
2022-09-02T06:53:59.869Z,47.98
2022-09-02T06:56:27.735Z,48.08
2022-09-02T06:58:54.731Z,47.96
2022-09-02T07:01:23.218Z,48.24
2022-09-02T07:04:08.593Z,47.95
2022-09-02T07:06:46.469Z,48.31
2022-09-02T07:09:15.155Z,48.00
2022-09-02T07:11:42.154Z,48.09
2022-09-02T07:14:09.047Z,48.30
2022-09-02T07:16:37.968Z,47.75
2022-09-02T07:19:09.897Z,48.35
2022-09-02T07:21:41.248Z,48.24
2022-09-02T07:24:09.160Z,48.11
2022-09-02T07:26:36.053Z,47.86
2022-09-02T07:29:02.909Z,48.00
2022-09-02T07:31:30.511Z,47.68
2022-09-02T07:33:59.251Z,47.87
2022-09-02T07:36:26.712Z,47.97
2022-09-02T07:38:56.478Z,47.75
2022-09-02T07:41:23.604Z,47.80
2022-09-02T07:43:51.616Z,47.53
2022-09-02T07:46:19.577Z,47.57
2022-09-02T07:48:46.531Z,47.60
2022-09-02T07:51:13.443Z,47.41
2022-09-02T07:53:40.705Z,47.07
2022-09-02T07:56:07.704Z,47.51
2022-09-02T07:58:34.762Z,46.80
2022-09-02T08:01:02.061Z,47.47
2022-09-02T08:03:29.058Z,47.39
2022-09-02T08:05:57.497Z,46.90
2022-09-02T08:08:26.454Z,46.87
2022-09-02T08:10:54.450Z,46.74
2022-09-02T08:13:21.961Z,47.04
2022-09-02T08:15:54.550Z,46.95
2022-09-02T08:18:22.655Z,47.25
2022-09-02T08:20:49.964Z,46.87
2022-09-02T08:23:36.113Z,46.80
2022-09-02T08:26:03.929Z,46.81
2022-09-02T08:28:32.340Z,47.05
2022-09-02T08:30:59.676Z,46.88
2022-09-02T08:33:26.671Z,47.36
2022-09-02T08:35:53.589Z,47.27
2022-09-02T08:38:22.193Z,47.36
2022-09-02T08:40:49.255Z,47.18
2022-09-02T08:43:31.667Z,47.38
2022-09-02T08:46:00.424Z,47.14
2022-09-02T08:48:37.781Z,47.72
2022-09-02T08:51:08.716Z,47.30
2022-09-02T08:53:38.569Z,47.58
2022-09-02T08:56:06.043Z,47.17
2022-09-02T08:58:44.480Z,47.78
2022-09-02T09:01:50.022Z,47.32
2022-09-02T09:04:19.185Z,47.43
2022-09-02T09:06:59.650Z,47.33
2022-09-02T09:09:39.540Z,47.21
2022-09-02T09:12:23.746Z,47.08
2022-09-02T09:15:14.030Z,47.37
2022-09-02T09:17:48.427Z,47.50
2022-09-02T09:20:22.928Z,47.67
2022-09-02T09:22:50.243Z,47.59
2022-09-02T09:25:17.606Z,47.71
2022-09-02T09:27:47.632Z,47.46
2022-09-02T09:30:15.716Z,47.66
2022-09-02T09:32:51.441Z,47.71
2022-09-02T09:35:18.940Z,47.77
2022-09-02T09:37:50.379Z,47.68
2022-09-02T09:40:26.197Z,47.42
2022-09-02T09:43:15.363Z,47.48
2022-09-02T09:45:46.834Z,47.49
2022-09-02T09:48:30.323Z,47.43
2022-09-02T09:50:57.331Z,47.43
2022-09-02T09:53:25.317Z,47.33
2022-09-02T09:56:02.555Z,47.53
2022-09-02T09:58:41.252Z,47.48
2022-09-02T10:01:20.063Z,47.38
2022-09-02T10:03:55.197Z,47.71
2022-09-02T10:06:36.139Z,47.52
2022-09-02T10:09:04.131Z,47.50
2022-09-02T10:11:32.555Z,47.57
2022-09-02T10:14:04.202Z,47.82
2022-09-02T10:16:33.757Z,47.68
2022-09-02T10:19:38.186Z,47.79
2022-09-02T10:22:59.741Z,47.54
2022-09-02T10:25:39.547Z,47.88
2022-09-02T10:28:09.878Z,47.51
2022-09-02T10:30:46.354Z,47.41
2022-09-02T10:33:23.997Z,47.53
2022-09-02T10:36:02.637Z,47.62
2022-09-02T10:38:36.061Z,47.58
2022-09-02T10:41:31.799Z,47.58
2022-09-02T10:44:22.991Z,47.83
2022-09-02T10:47:08.467Z,47.61
2022-09-02T10:50:14.206Z,47.61
2022-09-02T10:52:44.042Z,47.71
2022-09-02T10:55:28.980Z,47.72
2022-09-02T10:58:10.886Z,47.84
2022-09-02T11:00:38.540Z,47.70
2022-09-02T11:03:21.628Z,47.63
2022-09-02T11:05:56.264Z,47.83
2022-09-02T11:08:44.580Z,47.73
2022-09-02T11:11:16.270Z,47.88
2022-09-02T11:13:57.864Z,47.83
2022-09-02T11:16:34.624Z,47.62
2022-09-02T11:19:08.699Z,47.99
2022-09-02T11:21:57.160Z,47.69
2022-09-02T11:24:31.563Z,47.68
2022-09-02T11:27:08.671Z,47.95
2022-09-02T11:30:03.679Z,48.01
2022-09-02T11:32:43.924Z,47.98
2022-09-02T11:35:14.934Z,47.88
2022-09-02T11:38:20.225Z,47.98
2022-09-02T11:43:57.747Z,47.69
2022-09-02T11:46:36.998Z,47.59
2022-09-02T11:49:25.184Z,47.84
2022-09-02T11:52:07.665Z,47.91
2022-09-02T11:54:42.945Z,47.70
2022-09-02T11:57:13.645Z,47.92
2022-09-02T12:00:10.879Z,47.70
2022-09-02T12:02:47.173Z,47.79
2022-09-02T12:05:35.458Z,48.02
2022-09-02T12:08:16.513Z,47.81
2022-09-02T12:10:47.903Z,47.68
2022-09-02T12:16:21.449Z,47.69
2022-09-02T12:18:54.410Z,47.88
2022-09-02T12:21:31.671Z,48.06
2022-09-02T12:23:58.543Z,47.82
2022-09-02T12:26:29.398Z,48.08
2022-09-02T12:29:20.637Z,47.79
2022-09-02T12:31:48.946Z,47.69
2022-09-02T12:34:22.478Z,47.79
2022-09-02T12:36:52.327Z,47.86
2022-09-02T12:39:24.906Z,47.69
2022-09-02T12:42:18.021Z,47.83
2022-09-02T12:44:45.598Z,47.65
2022-09-02T12:47:51.551Z,47.74
2022-09-02T12:50:26.854Z,47.79
2022-09-02T12:53:23.240Z,47.64
2022-09-02T12:56:04.460Z,47.96
2022-09-02T12:58:41.468Z,47.80
2022-09-02T13:01:29.943Z,47.98
2022-09-02T13:04:10.058Z,47.69
2022-09-02T13:06:48.998Z,47.33
2022-09-02T13:09:53.540Z,47.77
2022-09-02T13:12:41.967Z,47.72
2022-09-02T13:15:30.286Z,47.73
2022-09-02T13:18:18.200Z,47.89
2022-09-02T13:20:56.923Z,47.70
2022-09-02T13:23:51.501Z,47.79
2022-09-02T13:26:49.313Z,47.45
2022-09-02T13:29:24.098Z,47.73
2022-09-02T13:32:10.784Z,47.61
2022-09-02T13:34:44.694Z,47.60
2022-09-02T13:37:39.970Z,47.41
2022-09-02T13:40:25.795Z,47.46
2022-09-02T13:42:54.247Z,47.62
2022-09-02T13:45:26.013Z,47.61
2022-09-02T13:47:57.201Z,47.67
2022-09-02T13:50:26.005Z,47.47
2022-09-02T13:53:45.016Z,47.60
2022-09-02T13:55:48.309Z,47.76
2022-09-02T13:58:53.735Z,47.91
2022-09-02T14:01:24.624Z,47.64
2022-09-02T14:03:52.823Z,47.58
2022-09-02T14:06:24.731Z,47.61
2022-09-02T14:09:00.061Z,47.79
2022-09-02T14:11:27.182Z,47.81
2022-09-02T14:13:56.197Z,47.80
2022-09-02T14:16:26.716Z,47.82
2022-09-02T14:19:23.394Z,47.89
2022-09-02T14:21:51.858Z,47.69
2022-09-02T14:24:25.794Z,47.53
2022-09-02T14:26:56.057Z,47.62
2022-09-02T14:29:23.172Z,47.19
2022-09-02T14:32:13.720Z,47.45
2022-09-02T14:34:42.663Z,47.34
2022-09-02T14:37:31.654Z,47.31
2022-09-02T14:40:08.971Z,47.36
2022-09-02T14:42:56.792Z,47.60
2022-09-02T14:45:49.230Z,47.31
2022-09-02T14:48:26.256Z,47.38
2022-09-02T14:51:02.652Z,47.38
2022-09-02T14:53:29.905Z,47.31
2022-09-02T14:56:35.890Z,47.27
2022-09-02T14:59:03.033Z,47.27
2022-09-02T15:01:30.366Z,47.19
2022-09-02T15:03:58.100Z,47.08
2022-09-02T15:06:24.963Z,47.07
2022-09-02T15:08:51.851Z,46.81
2022-09-02T15:11:21.366Z,46.95
2022-09-02T15:13:48.215Z,46.86
2022-09-02T15:16:15.637Z,46.91
2022-09-02T15:18:42.504Z,46.37
2022-09-02T15:21:09.859Z,46.13
2022-09-02T15:23:41.220Z,46.15
2022-09-02T15:26:08.858Z,46.05
2022-09-02T15:28:36.110Z,46.16
2022-09-02T15:31:03.056Z,46.28
2022-09-02T15:33:30.105Z,46.06
2022-09-02T15:36:08.136Z,45.87
2022-09-02T15:38:35.754Z,46.07
2022-09-02T15:41:19.262Z,45.98
2022-09-02T15:43:47.879Z,45.97
2022-09-02T15:46:28.385Z,46.00
2022-09-02T15:48:59.028Z,45.85
2022-09-02T15:51:28.621Z,45.65
2022-09-02T15:54:00.457Z,45.73
2022-09-02T15:56:28.125Z,45.74
2022-09-02T15:58:59.362Z,45.74
2022-09-02T16:01:27.528Z,45.67
2022-09-02T16:03:54.577Z,45.77
2022-09-02T16:06:21.512Z,45.67
2022-09-02T16:08:48.377Z,45.67
2022-09-02T16:11:15.208Z,45.84
2022-09-02T16:13:42.153Z,45.74
2022-09-02T16:16:11.041Z,45.72
2022-09-02T16:18:38.325Z,45.76
2022-09-02T16:21:06.325Z,45.74
2022-09-02T16:23:33.399Z,45.62
2022-09-02T16:26:07.025Z,45.68
2022-09-02T16:28:37.904Z,45.69
2022-09-02T16:31:05.151Z,45.83
2022-09-02T16:33:33.840Z,45.71
2022-09-02T16:36:00.745Z,45.62
2022-09-02T16:38:27.647Z,45.75
2022-09-02T16:40:55.589Z,45.86
2022-09-02T16:43:22.671Z,45.86
2022-09-02T16:45:52.310Z,45.75
2022-09-02T16:48:23.766Z,45.81
2022-09-02T16:50:52.631Z,45.83
2022-09-02T16:53:19.594Z,45.99
2022-09-02T16:55:47.154Z,45.83
2022-09-02T16:58:14.459Z,45.91
2022-09-02T17:00:41.692Z,45.89
2022-09-02T17:03:10.255Z,46.01
2022-09-02T17:05:37.130Z,45.82
2022-09-02T17:08:04.236Z,45.95
2022-09-02T17:10:31.421Z,45.99
2022-09-02T17:12:58.413Z,45.92
2022-09-02T17:15:26.191Z,45.80
2022-09-02T17:17:53.261Z,45.91
2022-09-02T17:20:20.243Z,46.18
2022-09-02T17:22:47.271Z,46.01
2022-09-02T17:25:14.231Z,46.08
2022-09-02T17:27:42.141Z,46.21
2022-09-02T17:30:11.146Z,46.04
2022-09-02T17:32:38.951Z,46.20
2022-09-02T17:35:07.604Z,46.20
2022-09-02T17:37:37.761Z,46.10
2022-09-02T17:40:08.177Z,46.02
2022-09-02T17:42:35.211Z,46.09
2022-09-02T17:45:02.084Z,46.27
2022-09-02T17:47:31.878Z,46.07
2022-09-02T17:49:59.413Z,46.20
2022-09-02T17:52:26.279Z,46.38
2022-09-02T17:54:53.774Z,46.37
2022-09-02T17:57:53.069Z,46.34
2022-09-02T18:00:23.763Z,46.54
2022-09-02T18:03:02.820Z,46.47
2022-09-02T18:05:36.896Z,46.34
2022-09-02T18:08:06.665Z,46.25
2022-09-02T18:11:03.137Z,46.44
2022-09-02T18:13:40.010Z,46.02
2022-09-02T18:16:09.759Z,46.25
2022-09-02T18:18:38.122Z,46.21
2022-09-02T18:21:13.292Z,46.38
2022-09-02T18:24:01.934Z,46.42
2022-09-02T18:27:06.991Z,46.23
2022-09-02T18:29:59.182Z,46.80
2022-09-02T18:33:05.675Z,46.73
2022-09-02T18:35:50.280Z,46.61
2022-09-02T18:38:42.243Z,46.81
2022-09-02T18:41:27.590Z,46.96
2022-09-02T18:43:57.589Z,46.89
2022-09-02T18:46:25.595Z,46.89
2022-09-02T18:48:53.530Z,46.86
2022-09-02T18:51:36.214Z,47.01
2022-09-02T18:54:31.034Z,46.82
2022-09-02T18:57:07.766Z,46.89
2022-09-02T18:59:38.271Z,46.94
2022-09-02T19:02:14.041Z,47.16
2022-09-02T19:04:40.928Z,47.00
2022-09-02T19:07:26.445Z,46.95
2022-09-02T19:09:56.326Z,47.18
2022-09-02T19:12:32.367Z,47.12
2022-09-02T19:15:03.555Z,47.23
2022-09-02T19:17:30.498Z,47.33
2022-09-02T19:19:57.783Z,47.31
2022-09-02T19:22:27.240Z,47.14
2022-09-02T19:25:01.551Z,47.42
2022-09-02T19:27:34.332Z,47.19
2022-09-02T19:30:07.352Z,47.34
2022-09-02T19:32:35.625Z,47.48
2022-09-02T19:35:05.868Z,47.39
2022-09-02T19:37:32.748Z,47.38
2022-09-02T19:40:09.874Z,47.66
2022-09-02T19:42:36.965Z,47.42
2022-09-02T19:45:04.139Z,47.24
2022-09-02T19:50:21.984Z,47.35
2022-09-02T19:52:49.618Z,47.43
2022-09-02T19:55:17.603Z,47.50
2022-09-02T19:57:45.244Z,47.62
2022-09-02T20:00:13.162Z,47.51
2022-09-02T20:02:43.409Z,47.41
2022-09-02T20:05:11.167Z,47.45
2022-09-02T20:07:38.080Z,47.43
2022-09-02T20:10:05.812Z,47.37
2022-09-02T20:12:36.547Z,47.52
2022-09-02T20:15:05.019Z,47.46
2022-09-02T20:17:32.141Z,47.40
2022-09-02T20:20:02.437Z,47.36
2022-09-02T20:22:30.312Z,47.68
2022-09-02T20:24:57.395Z,47.64
2022-09-02T20:27:42.312Z,47.59
2022-09-02T20:30:16.242Z,47.38
2022-09-02T20:32:58.981Z,47.48
2022-09-02T20:35:44.450Z,47.70
2022-09-02T20:38:48.678Z,47.71
2022-09-02T20:41:27.313Z,47.39
2022-09-02T20:44:13.313Z,47.74
2022-09-02T20:46:46.416Z,47.71
2022-09-02T20:49:32.321Z,47.66
2022-09-02T20:52:01.513Z,47.67
2022-09-02T20:54:40.946Z,47.69
2022-09-02T20:57:26.312Z,47.63
2022-09-02T21:00:12.649Z,47.67
2022-09-02T21:03:01.052Z,47.71
2022-09-02T21:05:42.569Z,47.83
2022-09-02T21:08:22.367Z,47.93
2022-09-02T21:10:54.969Z,47.67
2022-09-02T21:13:42.997Z,47.79
2022-09-02T21:16:19.822Z,47.75
2022-09-02T21:19:19.180Z,47.77
2022-09-02T21:22:16.778Z,47.80
2022-09-02T21:25:00.241Z,47.81
2022-09-02T21:27:34.990Z,47.65
2022-09-02T21:30:05.143Z,47.72
2022-09-02T21:32:39.240Z,47.88
2022-09-02T21:35:11.027Z,47.92
2022-09-02T21:37:39.922Z,47.74
2022-09-02T21:40:17.490Z,47.96
2022-09-02T21:42:54.652Z,48.03
2022-09-02T21:45:41.692Z,47.61
2022-09-02T21:48:10.423Z,47.87
2022-09-02T21:50:50.167Z,47.68
2022-09-02T21:53:39.537Z,47.63
2022-09-02T21:56:28.597Z,47.83
2022-09-02T21:59:14.434Z,47.65
2022-09-02T22:01:54.977Z,47.75
2022-09-02T22:04:46.610Z,47.82
2022-09-02T22:07:29.501Z,47.97
2022-09-02T22:10:11.265Z,47.83
2022-09-02T22:12:41.644Z,47.97
2022-09-02T22:15:44.569Z,47.84
2022-09-02T22:18:31.217Z,47.63
2022-09-02T22:21:01.519Z,48.11
2022-09-02T22:23:30.307Z,48.10
2022-09-02T22:26:08.622Z,48.05
2022-09-02T22:28:39.289Z,47.75
2022-09-02T22:31:08.982Z,47.89
2022-09-02T22:33:37.142Z,48.06
2022-09-02T22:36:08.125Z,48.02
2022-09-02T22:38:44.422Z,48.02
2022-09-02T22:41:31.094Z,48.04
2022-09-02T22:44:01.963Z,48.00
2022-09-02T22:46:59.822Z,47.99
2022-09-02T22:49:45.388Z,47.92
2022-09-02T22:52:44.932Z,47.81
2022-09-02T22:55:47.919Z,47.73
2022-09-02T22:58:32.548Z,47.79
2022-09-02T23:01:19.850Z,47.79
2022-09-02T23:04:03.036Z,47.64
2022-09-02T23:06:31.111Z,47.58
2022-09-02T23:09:10.449Z,47.86
2022-09-02T23:11:40.323Z,47.96
2022-09-02T23:14:26.786Z,47.79
2022-09-02T23:17:23.777Z,47.89
2022-09-02T23:20:03.023Z,47.87
2022-09-02T23:22:41.887Z,47.95
2022-09-02T23:25:42.048Z,47.81
2022-09-02T23:28:12.861Z,47.97
2022-09-02T23:30:49.082Z,48.04
2022-09-02T23:33:34.474Z,47.82
2022-09-02T23:36:13.292Z,48.08
2022-09-02T23:38:45.696Z,47.84
2022-09-02T23:41:12.888Z,48.15
2022-09-02T23:43:40.874Z,47.82
2022-09-02T23:46:26.990Z,47.79
2022-09-02T23:49:14.611Z,47.89
2022-09-02T23:51:57.147Z,48.09
2022-09-02T23:54:35.782Z,48.15
2022-09-02T23:57:17.934Z,48.17
